ARG1602 SABE-SAZM
Flight info
| Callsign | ARG1602 |
|---|---|
| Flight time | 0h 39m |
| Altitude | 35000 |
| Route | PTA8 GBE UW29 VOTRA VOTRA1Q |
| Aircraft | E190/M-SDE3GILORVW/S |
Departure
| Time | 2026-05-05 22:27 |
|---|---|
| Airport | Aeroparque Jorge Newbery (SABE) |
Arrival
| Time | 2026-05-05 23:07 |
|---|---|
| Airport | Ástor Piazzola International Airport (SAZM) |
| Time | Latitude | Longitude | Altitude | Speed | Heading |
|---|---|---|---|---|---|
| 2026-05-05 22:06 | -34.55924 | -58.41209 | 24 ft | 4 kts | 265° |
| 2026-05-05 22:06 | -34.55924 | -58.41211 | 26 ft | 0 kts | 263° |
| 2026-05-05 22:16 | -34.55924 | -58.41210 | 26 ft | 2 kts | 263° |
| 2026-05-05 22:16 | -34.55919 | -58.41180 | 27 ft | 4 kts | 253° |
| 2026-05-05 22:16 | -34.55916 | -58.41154 | 29 ft | 3 kts | 310° |
| 2026-05-05 22:16 | -34.55931 | -58.41133 | 29 ft | 4 kts | 311° |
| 2026-05-05 22:17 | -34.55937 | -58.41125 | 29 ft | 0 kts | 311° |
| 2026-05-05 22:19 | -34.55935 | -58.41127 | 29 ft | 1 kts | 311° |
| 2026-05-05 22:19 | -34.55924 | -58.41143 | 26 ft | 4 kts | 311° |
| 2026-05-05 22:19 | -34.55920 | -58.41149 | 25 ft | 0 kts | 311° |
| 2026-05-05 22:20 | -34.55917 | -58.41153 | 29 ft | 2 kts | 311° |
| 2026-05-05 22:20 | -34.55901 | -58.41175 | 27 ft | 5 kts | 311° |
| 2026-05-05 22:20 | -34.55885 | -58.41196 | 26 ft | 2 kts | 311° |
| 2026-05-05 22:20 | -34.55872 | -58.41215 | 24 ft | 4 kts | 309° |
| 2026-05-05 22:21 | -34.55854 | -58.41257 | 24 ft | 6 kts | 273° |
| 2026-05-05 22:21 | -34.55885 | -58.41297 | 25 ft | 7 kts | 212° |
| 2026-05-05 22:21 | -34.55907 | -58.41333 | 24 ft | 4 kts | 264° |
| 2026-05-05 22:21 | -34.55894 | -58.41375 | 24 ft | 7 kts | 297° |
| 2026-05-05 22:22 | -34.55868 | -58.41435 | 24 ft | 10 kts | 297° |
| 2026-05-05 22:22 | -34.55833 | -58.41517 | 26 ft | 12 kts | 296° |
| 2026-05-05 22:22 | -34.55794 | -58.41612 | 25 ft | 10 kts | 297° |
| 2026-05-05 22:22 | -34.55774 | -58.41660 | 26 ft | 3 kts | 297° |
| 2026-05-05 22:23 | -34.55761 | -58.41690 | 26 ft | 5 kts | 297° |
| 2026-05-05 22:23 | -34.55740 | -58.41742 | 26 ft | 8 kts | 296° |
| 2026-05-05 22:23 | -34.55704 | -58.41807 | 24 ft | 10 kts | 305° |
| 2026-05-05 22:23 | -34.55663 | -58.41887 | 25 ft | 12 kts | 303° |
| 2026-05-05 22:24 | -34.55612 | -58.41979 | 25 ft | 14 kts | 304° |
| 2026-05-05 22:24 | -34.55558 | -58.42072 | 24 ft | 13 kts | 306° |
| 2026-05-05 22:24 | -34.55500 | -58.42166 | 26 ft | 15 kts | 307° |
| 2026-05-05 22:24 | -34.55431 | -58.42274 | 24 ft | 16 kts | 308° |
| 2026-05-05 22:25 | -34.55373 | -58.42372 | 27 ft | 15 kts | 295° |
| 2026-05-05 22:25 | -34.55363 | -58.42472 | 24 ft | 6 kts | 254° |
| 2026-05-05 22:25 | -34.55395 | -58.42503 | 24 ft | 6 kts | 188° |
| 2026-05-05 22:25 | -34.55420 | -58.42483 | 25 ft | 4 kts | 135° |
| 2026-05-05 22:26 | -34.55427 | -58.42470 | 26 ft | 0 kts | 123° |
| 2026-05-05 22:26 | -34.55429 | -58.42466 | 25 ft | 0 kts | 124° |
| 2026-05-05 22:26 | -34.55433 | -58.42460 | 25 ft | 0 kts | 124° |
| 2026-05-05 22:26 | -34.55437 | -58.42452 | 25 ft | 5 kts | 124° |
| 2026-05-05 22:27 | -34.55582 | -58.42192 | 27 ft | 79 kts | 124° |
| 2026-05-05 22:27 | -34.56047 | -58.41357 | 26 ft | 156 kts | 123° |
| 2026-05-05 22:27 | -34.56758 | -58.40105 | 511 ft | 194 kts | 124° |
| 2026-05-05 22:27 | -34.57555 | -58.38678 | 1471 ft | 209 kts | 121° |
| 2026-05-05 22:28 | -34.58345 | -58.37212 | 2510 ft | 208 kts | 122° |
| 2026-05-05 22:28 | -34.59202 | -58.35677 | 3142 ft | 232 kts | 124° |
| 2026-05-05 22:28 | -34.60165 | -58.33974 | 3826 ft | 256 kts | 129° |
| 2026-05-05 22:28 | -34.61627 | -58.32661 | 4591 ft | 273 kts | 161° |
| 2026-05-05 22:29 | -34.63484 | -58.32406 | 5501 ft | 273 kts | 188° |
| 2026-05-05 22:29 | -34.65375 | -58.32731 | 6589 ft | 275 kts | 192° |
| 2026-05-05 22:29 | -34.67261 | -58.33144 | 7688 ft | 275 kts | 194° |
| 2026-05-05 22:29 | -34.69127 | -58.33578 | 8767 ft | 274 kts | 195° |
| 2026-05-05 22:30 | -34.70853 | -58.33957 | 9766 ft | 274 kts | 192° |
| 2026-05-05 22:30 | -34.72785 | -58.34228 | 10461 ft | 288 kts | 191° |
| 2026-05-05 22:30 | -34.74839 | -58.34481 | 11006 ft | 302 kts | 190° |
| 2026-05-05 22:30 | -34.76229 | -58.34640 | 11557 ft | 304 kts | 191° |
| 2026-05-05 22:31 | -34.79054 | -58.35016 | 12697 ft | 305 kts | 196° |
| 2026-05-05 22:31 | -34.80442 | -58.35321 | 13249 ft | 309 kts | 193° |
| 2026-05-05 22:31 | -34.83338 | -58.35542 | 14293 ft | 317 kts | 189° |
| 2026-05-05 22:31 | -34.85549 | -58.35747 | 15003 ft | 321 kts | 192° |
| 2026-05-05 22:32 | -34.87789 | -58.35985 | 15695 ft | 326 kts | 192° |
| 2026-05-05 22:32 | -34.89293 | -58.36137 | 16153 ft | 329 kts | 191° |
| 2026-05-05 22:32 | -34.91593 | -58.36359 | 16827 ft | 334 kts | 191° |
| 2026-05-05 22:32 | -34.93864 | -58.36568 | 17496 ft | 338 kts | 191° |
| 2026-05-05 22:33 | -34.96295 | -58.36788 | 18174 ft | 342 kts | 192° |
| 2026-05-05 22:33 | -34.98665 | -58.37123 | 18741 ft | 345 kts | 193° |
| 2026-05-05 22:33 | -35.01078 | -58.37412 | 19338 ft | 349 kts | 193° |
| 2026-05-05 22:33 | -35.03511 | -58.37707 | 19965 ft | 353 kts | 193° |
| 2026-05-05 22:34 | -35.05965 | -58.38003 | 20583 ft | 356 kts | 193° |
| 2026-05-05 22:34 | -35.08452 | -58.38304 | 21189 ft | 360 kts | 193° |
| 2026-05-05 22:34 | -35.10957 | -58.38608 | 21776 ft | 364 kts | 194° |
| 2026-05-05 22:34 | -35.13447 | -58.38910 | 22328 ft | 367 kts | 194° |
| 2026-05-05 22:35 | -35.15999 | -58.39221 | 22905 ft | 370 kts | 194° |
| 2026-05-05 22:35 | -35.18574 | -58.39536 | 23415 ft | 373 kts | 194° |
| 2026-05-05 22:35 | -35.21176 | -58.39851 | 23861 ft | 376 kts | 194° |
| 2026-05-05 22:35 | -35.23781 | -58.40170 | 24305 ft | 378 kts | 194° |
| 2026-05-05 22:36 | -35.26416 | -58.40492 | 24724 ft | 381 kts | 194° |
| 2026-05-05 22:36 | -35.29066 | -58.40815 | 25144 ft | 383 kts | 194° |
| 2026-05-05 22:36 | -35.31729 | -58.41141 | 25559 ft | 385 kts | 194° |
| 2026-05-05 22:36 | -35.34410 | -58.41468 | 25962 ft | 388 kts | 194° |
| 2026-05-05 22:37 | -35.37105 | -58.41799 | 26346 ft | 390 kts | 194° |
| 2026-05-05 22:37 | -35.39806 | -58.42129 | 26731 ft | 392 kts | 194° |
| 2026-05-05 22:37 | -35.42473 | -58.42451 | 26835 ft | 382 kts | 194° |
| 2026-05-05 22:37 | -35.45143 | -58.42789 | 26879 ft | 390 kts | 194° |
| 2026-05-05 22:38 | -35.47863 | -58.43119 | 26921 ft | 393 kts | 194° |
| 2026-05-05 22:38 | -35.50582 | -58.43452 | 26923 ft | 393 kts | 194° |
| 2026-05-05 22:38 | -35.53299 | -58.43786 | 26915 ft | 392 kts | 194° |
| 2026-05-05 22:38 | -35.55977 | -58.44115 | 26916 ft | 392 kts | 194° |
| 2026-05-05 22:39 | -35.58693 | -58.44450 | 26923 ft | 392 kts | 194° |
| 2026-05-05 22:39 | -35.61412 | -58.44783 | 26937 ft | 392 kts | 194° |
| 2026-05-05 22:39 | -35.64125 | -58.45120 | 26919 ft | 391 kts | 194° |
| 2026-05-05 22:39 | -35.66837 | -58.45453 | 26915 ft | 391 kts | 194° |
| 2026-05-05 22:40 | -35.69552 | -58.45789 | 26924 ft | 391 kts | 194° |
| 2026-05-05 22:40 | -35.72263 | -58.46124 | 26927 ft | 391 kts | 194° |
| 2026-05-05 22:40 | -35.75005 | -58.46266 | 26910 ft | 400 kts | 186° |
| 2026-05-05 22:40 | -35.77801 | -58.45769 | 26921 ft | 412 kts | 175° |
| 2026-05-05 22:41 | -35.80575 | -58.44764 | 26936 ft | 417 kts | 171° |
| 2026-05-05 22:41 | -35.83356 | -58.43781 | 26938 ft | 413 kts | 174° |
| 2026-05-05 22:41 | -35.86096 | -58.42873 | 26925 ft | 413 kts | 174° |
| 2026-05-05 22:41 | -35.88881 | -58.41964 | 26917 ft | 413 kts | 174° |
| 2026-05-05 22:42 | -35.91662 | -58.41054 | 26922 ft | 413 kts | 174° |
| 2026-05-05 22:42 | -35.94444 | -58.40146 | 26928 ft | 413 kts | 174° |
| 2026-05-05 22:42 | -35.97229 | -58.39235 | 26922 ft | 413 kts | 174° |
| 2026-05-05 22:42 | -36.00019 | -58.38320 | 26923 ft | 413 kts | 174° |
| 2026-05-05 22:43 | -36.02798 | -58.37409 | 26944 ft | 413 kts | 174° |
| 2026-05-05 22:43 | -36.05549 | -58.36508 | 26927 ft | 413 kts | 174° |
| 2026-05-05 22:43 | -36.08327 | -58.35595 | 26920 ft | 413 kts | 174° |
| 2026-05-05 22:43 | -36.11106 | -58.34682 | 26931 ft | 413 kts | 174° |
| 2026-05-05 22:44 | -36.13885 | -58.33768 | 26934 ft | 413 kts | 174° |
| 2026-05-05 22:44 | -36.16664 | -58.32852 | 26927 ft | 413 kts | 174° |
| 2026-05-05 22:44 | -36.19439 | -58.31939 | 26927 ft | 413 kts | 174° |
| 2026-05-05 22:44 | -36.22211 | -58.31022 | 26935 ft | 412 kts | 174° |
| 2026-05-05 22:45 | -36.24961 | -58.30117 | 26925 ft | 412 kts | 174° |
| 2026-05-05 22:45 | -36.27738 | -58.29200 | 26920 ft | 412 kts | 174° |
| 2026-05-05 22:45 | -36.30510 | -58.28284 | 26930 ft | 413 kts | 174° |
| 2026-05-05 22:45 | -36.33283 | -58.27368 | 26929 ft | 413 kts | 174° |
| 2026-05-05 22:46 | -36.36057 | -58.26448 | 26924 ft | 413 kts | 174° |
| 2026-05-05 22:46 | -36.38836 | -58.25529 | 26926 ft | 413 kts | 174° |
| 2026-05-05 22:46 | -36.41609 | -58.24608 | 26944 ft | 413 kts | 175° |
| 2026-05-05 22:46 | -36.44386 | -58.23690 | 26919 ft | 413 kts | 175° |
| 2026-05-05 22:47 | -36.47164 | -58.22767 | 26927 ft | 413 kts | 175° |
| 2026-05-05 22:47 | -36.49932 | -58.21847 | 26931 ft | 413 kts | 175° |
| 2026-05-05 22:47 | -36.52718 | -58.20922 | 26815 ft | 414 kts | 175° |
| 2026-05-05 22:47 | -36.55469 | -58.20005 | 26223 ft | 413 kts | 174° |
| 2026-05-05 22:48 | -36.58221 | -58.19069 | 25654 ft | 407 kts | 174° |
| 2026-05-05 22:48 | -36.60923 | -58.18126 | 25107 ft | 401 kts | 174° |
| 2026-05-05 22:48 | -36.63611 | -58.17176 | 24572 ft | 398 kts | 174° |
| 2026-05-05 22:48 | -36.66235 | -58.16246 | 24060 ft | 396 kts | 174° |
| 2026-05-05 22:49 | -36.68884 | -58.15309 | 23561 ft | 395 kts | 174° |
| 2026-05-05 22:49 | -36.71519 | -58.14377 | 22977 ft | 392 kts | 174° |
| 2026-05-05 22:49 | -36.74128 | -58.13456 | 22405 ft | 388 kts | 174° |
| 2026-05-05 22:49 | -36.76713 | -58.12544 | 21846 ft | 384 kts | 174° |
| 2026-05-05 22:50 | -36.79272 | -58.11642 | 21621 ft | 381 kts | 171° |
| 2026-05-05 22:50 | -36.81886 | -58.10880 | 20721 ft | 386 kts | 175° |
| 2026-05-05 22:50 | -36.84478 | -58.10149 | 20192 ft | 379 kts | 174° |
| 2026-05-05 22:50 | -36.87032 | -58.09411 | 19677 ft | 375 kts | 174° |
| 2026-05-05 22:51 | -36.89564 | -58.08676 | 19181 ft | 374 kts | 174° |
| 2026-05-05 22:51 | -36.92098 | -58.07942 | 18692 ft | 373 kts | 174° |
| 2026-05-05 22:51 | -36.94622 | -58.07211 | 18208 ft | 371 kts | 174° |
| 2026-05-05 22:51 | -36.97101 | -58.06491 | 17685 ft | 367 kts | 174° |
| 2026-05-05 22:52 | -36.99563 | -58.05757 | 17161 ft | 360 kts | 174° |
| 2026-05-05 22:52 | -37.01983 | -58.05029 | 16642 ft | 355 kts | 174° |
| 2026-05-05 22:52 | -37.04374 | -58.04292 | 16144 ft | 352 kts | 173° |
| 2026-05-05 22:52 | -37.06729 | -58.03455 | 15650 ft | 351 kts | 171° |
| 2026-05-05 22:53 | -37.09056 | -58.02580 | 15183 ft | 348 kts | 171° |
| 2026-05-05 22:53 | -37.11364 | -58.01695 | 14716 ft | 344 kts | 170° |
| 2026-05-05 22:53 | -37.13648 | -58.00811 | 14262 ft | 341 kts | 170° |
| 2026-05-05 22:53 | -37.15896 | -57.99934 | 13829 ft | 336 kts | 171° |
| 2026-05-05 22:54 | -37.18109 | -57.99043 | 13346 ft | 332 kts | 170° |
| 2026-05-05 22:54 | -37.20269 | -57.98171 | 12865 ft | 329 kts | 170° |
| 2026-05-05 22:54 | -37.22445 | -57.97297 | 12407 ft | 327 kts | 170° |
| 2026-05-05 22:54 | -37.24608 | -57.96439 | 11952 ft | 325 kts | 170° |
| 2026-05-05 22:55 | -37.26758 | -57.95598 | 11506 ft | 322 kts | 170° |
| 2026-05-05 22:55 | -37.28888 | -57.94774 | 11058 ft | 319 kts | 170° |
| 2026-05-05 22:55 | -37.31008 | -57.93966 | 10627 ft | 317 kts | 170° |
| 2026-05-05 22:55 | -37.33110 | -57.93176 | 10205 ft | 314 kts | 170° |
| 2026-05-05 22:56 | -37.35196 | -57.92399 | 9798 ft | 311 kts | 170° |
| 2026-05-05 22:56 | -37.37245 | -57.91640 | 9382 ft | 302 kts | 170° |
| 2026-05-05 22:56 | -37.39237 | -57.90908 | 9000 ft | 294 kts | 170° |
| 2026-05-05 22:56 | -37.41187 | -57.90205 | 8634 ft | 287 kts | 170° |
| 2026-05-05 22:57 | -37.43086 | -57.89534 | 8285 ft | 281 kts | 170° |
| 2026-05-05 22:57 | -37.44951 | -57.88889 | 7946 ft | 275 kts | 170° |
| 2026-05-05 22:57 | -37.46780 | -57.88269 | 7624 ft | 270 kts | 170° |
| 2026-05-05 22:57 | -37.48579 | -57.87675 | 7300 ft | 265 kts | 170° |
| 2026-05-05 22:58 | -37.50330 | -57.87112 | 6996 ft | 261 kts | 170° |
| 2026-05-05 22:58 | -37.52078 | -57.86567 | 6720 ft | 256 kts | 170° |
| 2026-05-05 22:58 | -37.53789 | -57.86042 | 6461 ft | 251 kts | 170° |
| 2026-05-05 22:58 | -37.55472 | -57.85535 | 6191 ft | 246 kts | 170° |
| 2026-05-05 22:59 | -37.57135 | -57.85044 | 5923 ft | 245 kts | 170° |
| 2026-05-05 22:59 | -37.58794 | -57.84566 | 5657 ft | 244 kts | 170° |
| 2026-05-05 22:59 | -37.60450 | -57.84101 | 5393 ft | 244 kts | 170° |
| 2026-05-05 22:59 | -37.62109 | -57.83644 | 5146 ft | 244 kts | 170° |
| 2026-05-05 23:00 | -37.65430 | -57.82759 | 4632 ft | 244 kts | 170° |
| 2026-05-05 23:00 | -37.67067 | -57.82343 | 4376 ft | 243 kts | 170° |
| 2026-05-05 23:00 | -37.68732 | -57.81931 | 4121 ft | 243 kts | 170° |
| 2026-05-05 23:01 | -37.70391 | -57.81523 | 3867 ft | 243 kts | 170° |
| 2026-05-05 23:01 | -37.72054 | -57.81121 | 3613 ft | 243 kts | 170° |
| 2026-05-05 23:01 | -37.73717 | -57.80734 | 3362 ft | 243 kts | 170° |
| 2026-05-05 23:01 | -37.75381 | -57.80354 | 3144 ft | 242 kts | 170° |
| 2026-05-05 23:02 | -37.77012 | -57.79995 | 3052 ft | 235 kts | 171° |
| 2026-05-05 23:02 | -37.78600 | -57.79646 | 3002 ft | 227 kts | 171° |
| 2026-05-05 23:02 | -37.80151 | -57.79304 | 2985 ft | 225 kts | 170° |
| 2026-05-05 23:02 | -37.81687 | -57.78882 | 2994 ft | 227 kts | 160° |
| 2026-05-05 23:03 | -37.82985 | -57.77780 | 3000 ft | 228 kts | 130° |
| 2026-05-05 23:03 | -37.83859 | -57.76140 | 3017 ft | 228 kts | 119° |
| 2026-05-05 23:03 | -37.84695 | -57.74443 | 3012 ft | 228 kts | 123° |
| 2026-05-05 23:03 | -37.85602 | -57.72764 | 2682 ft | 232 kts | 122° |
| 2026-05-05 23:04 | -37.86463 | -57.71041 | 2413 ft | 229 kts | 120° |
| 2026-05-05 23:04 | -37.87275 | -57.69433 | 2455 ft | 206 kts | 122° |
| 2026-05-05 23:04 | -37.88059 | -57.67906 | 2049 ft | 204 kts | 122° |
| 2026-05-05 23:04 | -37.88808 | -57.66423 | 1611 ft | 195 kts | 121° |
| 2026-05-05 23:05 | -37.89508 | -57.65045 | 1290 ft | 176 kts | 122° |
| 2026-05-05 23:05 | -37.90134 | -57.63812 | 1067 ft | 158 kts | 122° |
| 2026-05-05 23:05 | -37.90701 | -57.62691 | 863 ft | 145 kts | 121° |
| 2026-05-05 23:05 | -37.91224 | -57.61657 | 677 ft | 138 kts | 122° |
| 2026-05-05 23:06 | -37.91732 | -57.60654 | 507 ft | 133 kts | 122° |
| 2026-05-05 23:06 | -37.92229 | -57.59699 | 327 ft | 126 kts | 124° |
| 2026-05-05 23:06 | -37.92703 | -57.58753 | 154 ft | 128 kts | 121° |
| 2026-05-05 23:06 | -37.93165 | -57.57828 | 44 ft | 116 kts | 121° |
| 2026-05-05 23:07 | -37.93516 | -57.57140 | 40 ft | 71 kts | 122° |
| 2026-05-05 23:07 | -37.93727 | -57.56724 | 45 ft | 47 kts | 123° |
| 2026-05-05 23:07 | -37.93848 | -57.56482 | 43 ft | 16 kts | 122° |
| 2026-05-05 23:07 | -37.93907 | -57.56366 | 41 ft | 13 kts | 122° |
| 2026-05-05 23:08 | -37.93947 | -57.56320 | 43 ft | 3 kts | 165° |
| 2026-05-05 23:08 | -37.93967 | -57.56326 | 44 ft | 3 kts | 203° |
| 2026-05-05 23:08 | -37.93977 | -57.56336 | 44 ft | 2 kts | 220° |
| 2026-05-05 23:08 | -37.93991 | -57.56358 | 43 ft | 4 kts | 234° |
| 2026-05-05 23:09 | -37.94010 | -57.56397 | 46 ft | 7 kts | 240° |
| 2026-05-05 23:09 | -37.94033 | -57.56463 | 46 ft | 10 kts | 259° |
| 2026-05-05 23:09 | -37.94014 | -57.56539 | 44 ft | 10 kts | 297° |
| 2026-05-05 23:09 | -37.93978 | -57.56625 | 46 ft | 12 kts | 300° |
| 2026-05-05 23:10 | -37.93933 | -57.56726 | 47 ft | 14 kts | 300° |
| 2026-05-05 23:10 | -37.93881 | -57.56843 | 46 ft | 12 kts | 300° |
| 2026-05-05 23:10 | -37.93843 | -57.56928 | 44 ft | 12 kts | 299° |
| 2026-05-05 23:10 | -37.93799 | -57.57028 | 45 ft | 14 kts | 299° |
| 2026-05-05 23:11 | -37.93748 | -57.57145 | 47 ft | 16 kts | 299° |
| 2026-05-05 23:11 | -37.93689 | -57.57277 | 46 ft | 18 kts | 299° |
| 2026-05-05 23:11 | -37.93625 | -57.57421 | 45 ft | 20 kts | 300° |
| 2026-05-05 23:11 | -37.93567 | -57.57552 | 44 ft | 16 kts | 299° |
| 2026-05-05 23:12 | -37.93510 | -57.57680 | 45 ft | 13 kts | 299° |
| 2026-05-05 23:12 | -37.93485 | -57.57738 | 47 ft | 8 kts | 299° |
| 2026-05-05 23:12 | -37.93453 | -57.57810 | 44 ft | 10 kts | 297° |
| 2026-05-05 23:12 | -37.93416 | -57.57897 | 47 ft | 12 kts | 298° |
| 2026-05-05 23:13 | -37.93382 | -57.57971 | 44 ft | 9 kts | 300° |
| 2026-05-05 23:13 | -37.93361 | -57.58017 | 45 ft | 5 kts | 304° |
| 2026-05-05 23:13 | -37.93348 | -57.58036 | 44 ft | 2 kts | 311° |
| 2026-05-05 23:13 | -37.93335 | -57.58058 | 44 ft | 0 kts | 303° |
| 2026-05-05 23:14 | -37.93330 | -57.58068 | 46 ft | 2 kts | 303° |
| 2026-05-05 23:14 | -37.93326 | -57.58076 | 47 ft | 1 kts | 303° |
| 2026-05-05 23:14 | -37.93323 | -57.58082 | 47 ft | 1 kts | 303° |
| 2026-05-05 23:14 | -37.93323 | -57.58083 | 47 ft | 0 kts | 304° |